PWSweather.com
Personal Weather Stations
Station Observations
IPORTUGA89
BarosaPT

BarosaPT

Lat: 39.754028, Lon: -8.843

Elevation: 98

Station Type: Davis Vp2

High Low Average
Temperature 80.8°F27.1°F 62.2°F16.8°F 68.4°F20.2°F
Dew Point 68.0°F20.0°F 59.5°F15.3°F 62.5°F16.9°F
Winds 13.0 mph -20.9 mph - 2.0 mph 3.2 mph 7.1 mph 11.4 mph
Wind Gusts 23.9 mph38.5 mph 4.9 mph7.9 mph 13.7 mph22.0 mph
Humidity 92% 60% 82%
Pressure 30.16 in1021.30 in 30.04 in1017.30 in -
Precipitation 0.00 in0.00 in - -
Hour Temp Dew Point Humidity Winds Wind Gusts Pressure Precip Precip Rate Daily Precip Total
12:04 AM 63.5°F17.5°C 60.4°F15.8°C 90% 6.0 mph NW9.7 kmh NW 11.0 mph17.7 kmh 30.05 in1017.6 mb 0.00 in0.0 mm 0.00 in0.0 mm 0.00 in0.0 mm
12:14 AM 63.3°F17.4°C 60.6°F15.9°C 91% 4.9 mph NNW7.9 kmh NNW 13.0 mph20.9 kmh 30.05 in1017.6 mb 0.00 in0.0 mm 0.00 in0.0 mm 0.00 in0.0 mm
12:24 AM 63.3°F17.4°C 60.6°F15.9°C 91% 4.9 mph N7.9 kmh N 10.1 mph16.3 kmh 30.05 in1017.6 mb 0.00 in0.0 mm 0.00 in0.0 mm 0.00 in0.0 mm
12:34 AM 63.1°F17.3°C 60.4°F15.8°C 91% 4.9 mph NW7.9 kmh NW 8.9 mph14.3 kmh 30.05 in1017.6 mb 0.00 in0.0 mm 0.00 in0.0 mm 0.00 in0.0 mm
12:44 AM 63.3°F17.4°C 60.6°F15.9°C 91% 4.0 mph NW6.4 kmh NW 10.1 mph16.3 kmh 30.05 in1017.6 mb 0.00 in0.0 mm 0.00 in0.0 mm 0.00 in0.0 mm
12:54 AM 63.3°F17.4°C 60.6°F15.9°C 91% 6.0 mph NNW9.7 kmh NNW 12.1 mph19.5 kmh 30.05 in1017.6 mb 0.00 in0.0 mm 0.00 in0.0 mm 0.00 in0.0 mm
01:04 AM 63.3°F17.4°C 60.6°F15.9°C 91% 4.9 mph NW7.9 kmh NW 8.9 mph14.3 kmh 30.05 in1017.6 mb 0.00 in0.0 mm 0.00 in0.0 mm 0.00 in0.0 mm
01:14 AM 63.3°F17.4°C 60.6°F15.9°C 91% 4.9 mph NW7.9 kmh NW 8.9 mph14.3 kmh 30.05 in1017.6 mb 0.00 in0.0 mm 0.00 in0.0 mm 0.00 in0.0 mm
01:24 AM 63.3°F17.4°C 60.6°F15.9°C 91% 6.0 mph NW9.7 kmh NW 11.0 mph17.7 kmh 30.05 in1017.6 mb 0.00 in0.0 mm 0.00 in0.0 mm 0.00 in0.0 mm
01:34 AM 63.3°F17.4°C 60.6°F15.9°C 91% 6.9 mph NNW11.1 kmh NNW 12.1 mph19.5 kmh 30.05 in1017.6 mb 0.00 in0.0 mm 0.00 in0.0 mm 0.00 in0.0 mm
01:44 AM 63.3°F17.4°C 60.6°F15.9°C 91% 4.9 mph NNW7.9 kmh NNW 11.0 mph17.7 kmh 30.05 in1017.6 mb 0.00 in0.0 mm 0.00 in0.0 mm 0.00 in0.0 mm
01:54 AM 63.1°F17.3°C 60.4°F15.8°C 91% 6.0 mph NW9.7 kmh NW 11.0 mph17.7 kmh 30.05 in1017.6 mb 0.00 in0.0 mm 0.00 in0.0 mm 0.00 in0.0 mm
02:04 AM 63.1°F17.3°C 60.4°F15.8°C 91% 4.9 mph NNW7.9 kmh NNW 11.0 mph17.7 kmh 30.05 in1017.6 mb 0.00 in0.0 mm 0.00 in0.0 mm 0.00 in0.0 mm
02:14 AM 63.1°F17.3°C 60.4°F15.8°C 91% 4.9 mph NW7.9 kmh NW 10.1 mph16.3 kmh 30.05 in1017.6 mb 0.00 in0.0 mm 0.00 in0.0 mm 0.00 in0.0 mm
02:24 AM 63.1°F17.3°C 60.4°F15.8°C 91% 6.0 mph N9.7 kmh N 10.1 mph16.3 kmh 30.05 in1017.6 mb 0.00 in0.0 mm 0.00 in0.0 mm 0.00 in0.0 mm
02:34 AM 63.1°F17.3°C 60.4°F15.8°C 91% 6.0 mph NW9.7 kmh NW 10.1 mph16.3 kmh 30.05 in1017.6 mb 0.00 in0.0 mm 0.00 in0.0 mm 0.00 in0.0 mm
02:44 AM 63.0°F17.2°C 60.3°F15.7°C 91% 6.0 mph NNW9.7 kmh NNW 12.1 mph19.5 kmh 30.05 in1017.6 mb 0.00 in0.0 mm 0.00 in0.0 mm 0.00 in0.0 mm
02:54 AM 63.0°F17.2°C 60.3°F15.7°C 91% 4.9 mph NW7.9 kmh NW 8.9 mph14.3 kmh 30.05 in1017.6 mb 0.00 in0.0 mm 0.00 in0.0 mm 0.00 in0.0 mm
03:04 AM 62.8°F17.1°C 60.1°F15.6°C 91% 4.9 mph NW7.9 kmh NW 8.9 mph14.3 kmh 30.04 in1017.3 mb 0.00 in0.0 mm 0.00 in0.0 mm 0.00 in0.0 mm
03:14 AM 62.8°F17.1°C 60.4°F15.8°C 92% 4.0 mph N6.4 kmh N 11.0 mph17.7 kmh 30.04 in1017.3 mb 0.00 in0.0 mm 0.00 in0.0 mm 0.00 in0.0 mm
03:24 AM 62.8°F17.1°C 60.4°F15.8°C 92% 6.0 mph N9.7 kmh N 12.1 mph19.5 kmh 30.04 in1017.3 mb 0.00 in0.0 mm 0.00 in0.0 mm 0.00 in0.0 mm
03:34 AM 62.8°F17.1°C 60.4°F15.8°C 92% 6.0 mph NW9.7 kmh NW 12.1 mph19.5 kmh 30.04 in1017.3 mb 0.00 in0.0 mm 0.00 in0.0 mm 0.00 in0.0 mm
03:44 AM 62.6°F17.0°C 60.3°F15.7°C 92% 4.9 mph NW7.9 kmh NW 11.0 mph17.7 kmh 30.04 in1017.3 mb 0.00 in0.0 mm 0.00 in0.0 mm 0.00 in0.0 mm
03:54 AM 62.6°F17.0°C 60.3°F15.7°C 92% 4.9 mph NNW7.9 kmh NNW 11.0 mph17.7 kmh 30.04 in1017.3 mb 0.00 in0.0 mm 0.00 in0.0 mm 0.00 in0.0 mm
04:05 AM 62.4°F16.9°C 60.1°F15.6°C 92% 4.9 mph NE7.9 kmh NE 10.1 mph16.3 kmh 30.04 in1017.3 mb 0.00 in0.0 mm 0.00 in0.0 mm 0.00 in0.0 mm
04:15 AM 62.4°F16.9°C 60.1°F15.6°C 92% 4.9 mph 7.9 kmh 8.9 mph14.3 kmh 30.04 in1017.3 mb 0.00 in0.0 mm 0.00 in0.0 mm 0.00 in0.0 mm
04:25 AM 62.6°F17.0°C 60.3°F15.7°C 92% 4.0 mph NW6.4 kmh NW 8.1 mph13.0 kmh 30.04 in1017.3 mb 0.00 in0.0 mm 0.00 in0.0 mm 0.00 in0.0 mm
04:35 AM 62.6°F17.0°C 60.3°F15.7°C 92% 2.9 mph NNW4.7 kmh NNW 10.1 mph16.3 kmh 30.04 in1017.3 mb 0.00 in0.0 mm 0.00 in0.0 mm 0.00 in0.0 mm
04:45 AM 62.8°F17.1°C 60.4°F15.8°C 92% 4.9 mph NNW7.9 kmh NNW 8.9 mph14.3 kmh 30.05 in1017.6 mb 0.00 in0.0 mm 0.00 in0.0 mm 0.00 in0.0 mm
04:55 AM 62.8°F17.1°C 60.4°F15.8°C 92% 4.0 mph NNW6.4 kmh NNW 12.1 mph19.5 kmh 30.05 in1017.6 mb 0.00 in0.0 mm 0.00 in0.0 mm 0.00 in0.0 mm
05:05 AM 63.0°F17.2°C 60.6°F15.9°C 92% 4.0 mph NNW6.4 kmh NNW 6.0 mph9.7 kmh 30.05 in1017.6 mb 0.00 in0.0 mm 0.00 in0.0 mm 0.00 in0.0 mm
05:15 AM 63.0°F17.2°C 60.6°F15.9°C 92% 2.0 mph NW3.2 kmh NW 4.9 mph7.9 kmh 30.05 in1017.6 mb 0.00 in0.0 mm 0.00 in0.0 mm 0.00 in0.0 mm
05:25 AM 63.0°F17.2°C 60.6°F15.9°C 92% 4.9 mph NNE7.9 kmh NNE 8.9 mph14.3 kmh 30.05 in1017.6 mb 0.00 in0.0 mm 0.00 in0.0 mm 0.00 in0.0 mm
05:35 AM 63.1°F17.3°C 60.8°F16.0°C 92% 4.9 mph NNW7.9 kmh NNW 10.1 mph16.3 kmh 30.05 in1017.6 mb 0.00 in0.0 mm 0.00 in0.0 mm 0.00 in0.0 mm
05:45 AM 63.1°F17.3°C 60.8°F16.0°C 92% 4.0 mph 6.4 kmh 8.9 mph14.3 kmh 30.06 in1017.9 mb 0.00 in0.0 mm 0.00 in0.0 mm 0.00 in0.0 mm
05:55 AM 63.3°F17.4°C 61.0°F16.1°C 92% 2.9 mph NNW4.7 kmh NNW 6.9 mph11.1 kmh 30.06 in1017.9 mb 0.00 in0.0 mm 0.00 in0.0 mm 0.00 in0.0 mm
06:05 AM 63.3°F17.4°C 61.0°F16.1°C 92% 2.9 mph NW4.7 kmh NW 6.0 mph9.7 kmh 30.06 in1017.9 mb 0.00 in0.0 mm 0.00 in0.0 mm 0.00 in0.0 mm
06:15 AM 63.3°F17.4°C 61.0°F16.1°C 92% 4.0 mph NNW6.4 kmh NNW 8.9 mph14.3 kmh 30.06 in1017.9 mb 0.00 in0.0 mm 0.00 in0.0 mm 0.00 in0.0 mm
06:25 AM 63.5°F17.5°C 61.2°F16.2°C 92% 4.0 mph NW6.4 kmh NW 8.9 mph14.3 kmh 30.06 in1017.9 mb 0.00 in0.0 mm 0.00 in0.0 mm 0.00 in0.0 mm
06:35 AM 63.3°F17.4°C 61.0°F16.1°C 92% 4.9 mph NNW7.9 kmh NNW 8.9 mph14.3 kmh 30.07 in1018.3 mb 0.00 in0.0 mm 0.00 in0.0 mm 0.00 in0.0 mm
06:45 AM 63.7°F17.6°C 61.3°F16.3°C 92% 4.9 mph NNE7.9 kmh NNE 8.9 mph14.3 kmh 30.07 in1018.3 mb 0.00 in0.0 mm 0.00 in0.0 mm 0.00 in0.0 mm
06:55 AM 63.7°F17.6°C 61.3°F16.3°C 92% 4.0 mph NW6.4 kmh NW 8.1 mph13.0 kmh 30.07 in1018.3 mb 0.00 in0.0 mm 0.00 in0.0 mm 0.00 in0.0 mm
07:05 AM 63.9°F17.7°C 61.2°F16.2°C 91% 4.9 mph N7.9 kmh N 10.1 mph16.3 kmh 30.08 in1018.6 mb 0.00 in0.0 mm 0.00 in0.0 mm 0.00 in0.0 mm
07:15 AM 64.0°F17.8°C 61.3°F16.3°C 91% 4.0 mph NW6.4 kmh NW 10.1 mph16.3 kmh 30.08 in1018.6 mb 0.00 in0.0 mm 0.00 in0.0 mm 0.00 in0.0 mm
07:25 AM 64.2°F17.9°C 61.5°F16.4°C 91% 4.0 mph N6.4 kmh N 8.9 mph14.3 kmh 30.09 in1019.0 mb 0.00 in0.0 mm 0.00 in0.0 mm 0.00 in0.0 mm
07:35 AM 64.4°F18.0°C 61.3°F16.3°C 90% 4.9 mph NNW7.9 kmh NNW 11.0 mph17.7 kmh 30.09 in1019.0 mb 0.00 in0.0 mm 0.00 in0.0 mm 0.00 in0.0 mm
07:45 AM 64.6°F18.1°C 61.5°F16.4°C 90% 6.0 mph NNW9.7 kmh NNW 13.0 mph20.9 kmh 30.09 in1019.0 mb 0.00 in0.0 mm 0.00 in0.0 mm 0.00 in0.0 mm
07:55 AM 64.8°F18.2°C 61.5°F16.4°C 89% 6.9 mph 11.1 kmh 14.1 mph22.7 kmh 30.09 in1019.0 mb 0.00 in0.0 mm 0.00 in0.0 mm 0.00 in0.0 mm
08:05 AM 65.1°F18.4°C 61.9°F16.6°C 89% 6.9 mph NW11.1 kmh NW 13.0 mph20.9 kmh 30.09 in1019.0 mb 0.00 in0.0 mm 0.00 in0.0 mm 0.00 in0.0 mm
08:15 AM 65.1°F18.4°C 61.9°F16.6°C 89% 6.9 mph NE11.1 kmh NE 13.0 mph20.9 kmh 30.09 in1019.0 mb 0.00 in0.0 mm 0.00 in0.0 mm 0.00 in0.0 mm
08:25 AM 65.7°F18.7°C 62.1°F16.7°C 88% 4.9 mph N7.9 kmh N 8.9 mph14.3 kmh 30.09 in1019.0 mb 0.00 in0.0 mm 0.00 in0.0 mm 0.00 in0.0 mm
08:35 AM 66.0°F18.9°C 62.4°F16.9°C 88% 4.9 mph ENE7.9 kmh ENE 12.1 mph19.5 kmh 30.09 in1019.0 mb 0.00 in0.0 mm 0.00 in0.0 mm 0.00 in0.0 mm
08:45 AM 66.6°F19.2°C 63.0°F17.2°C 88% 4.0 mph NNW6.4 kmh NNW 10.1 mph16.3 kmh 30.09 in1019.0 mb 0.00 in0.0 mm 0.00 in0.0 mm 0.00 in0.0 mm
08:55 AM 67.3°F19.6°C 63.3°F17.4°C 87% 6.0 mph NNW9.7 kmh NNW 15.0 mph24.1 kmh 30.09 in1019.0 mb 0.00 in0.0 mm 0.00 in0.0 mm 0.00 in0.0 mm
09:05 AM 68.0°F20.0°C 63.3°F17.4°C 85% 6.0 mph NNW9.7 kmh NNW 15.0 mph24.1 kmh 30.09 in1019.0 mb 0.00 in0.0 mm 0.00 in0.0 mm 0.00 in0.0 mm
09:15 AM 68.7°F20.4°C 63.7°F17.6°C 84% 6.9 mph N11.1 kmh N 12.1 mph19.5 kmh 30.09 in1019.0 mb 0.00 in0.0 mm 0.00 in0.0 mm 0.00 in0.0 mm
09:25 AM 69.4°F20.8°C 64.0°F17.8°C 83% 6.9 mph NNE11.1 kmh NNE 14.1 mph22.7 kmh 30.09 in1019.0 mb 0.00 in0.0 mm 0.00 in0.0 mm 0.00 in0.0 mm
09:35 AM 70.2°F21.2°C 64.0°F17.8°C 81% 6.9 mph NW11.1 kmh NW 14.1 mph22.7 kmh 30.09 in1019.0 mb 0.00 in0.0 mm 0.00 in0.0 mm 0.00 in0.0 mm
09:45 AM 70.9°F21.6°C 64.4°F18.0°C 80% 8.9 mph N14.3 kmh N 15.0 mph24.1 kmh 30.09 in1019.0 mb 0.00 in0.0 mm 0.00 in0.0 mm 0.00 in0.0 mm
09:55 AM 71.4°F21.9°C 64.6°F18.1°C 79% 8.9 mph NE14.3 kmh NE 16.1 mph25.9 kmh 30.09 in1019.0 mb 0.00 in0.0 mm 0.00 in0.0 mm 0.00 in0.0 mm
10:05 AM 73.0°F22.8°C 65.5°F18.6°C 77% 6.9 mph 11.1 kmh 13.0 mph20.9 kmh 30.09 in1019.0 mb 0.00 in0.0 mm 0.00 in0.0 mm 0.00 in0.0 mm
10:15 AM 73.9°F23.3°C 65.1°F18.4°C 74% 8.1 mph N13.0 kmh N 16.1 mph25.9 kmh 30.09 in1019.0 mb 0.00 in0.0 mm 0.00 in0.0 mm 0.00 in0.0 mm
10:25 AM 74.8°F23.8°C 66.0°F18.9°C 74% 8.1 mph NNW13.0 kmh NNW 15.0 mph24.1 kmh 30.09 in1019.0 mb 0.00 in0.0 mm 0.00 in0.0 mm 0.00 in0.0 mm
10:35 AM 75.4°F24.1°C 65.3°F18.5°C 71% 6.9 mph NE11.1 kmh NE 17.0 mph27.4 kmh 30.09 in1019.0 mb 0.00 in0.0 mm 0.00 in0.0 mm 0.00 in0.0 mm
10:45 AM 75.7°F24.3°C 65.7°F18.7°C 71% 6.9 mph N11.1 kmh N 14.1 mph22.7 kmh 30.09 in1019.0 mb 0.00 in0.0 mm 0.00 in0.0 mm 0.00 in0.0 mm
10:55 AM 76.6°F24.8°C 66.2°F19.0°C 70% 6.0 mph N9.7 kmh N 14.1 mph22.7 kmh 30.09 in1019.0 mb 0.00 in0.0 mm 0.00 in0.0 mm 0.00 in0.0 mm
11:05 AM 76.8°F24.9°C 65.8°F18.8°C 69% 8.1 mph N13.0 kmh N 15.0 mph24.1 kmh 30.08 in1018.6 mb 0.00 in0.0 mm 0.00 in0.0 mm 0.00 in0.0 mm
11:15 AM 77.2°F25.1°C 66.2°F19.0°C 69% 8.9 mph NW14.3 kmh NW 17.0 mph27.4 kmh 30.08 in1018.6 mb 0.00 in0.0 mm 0.00 in0.0 mm 0.00 in0.0 mm
11:25 AM 77.9°F25.5°C 66.6°F19.2°C 68% 8.9 mph W14.3 kmh W 17.9 mph28.8 kmh 30.08 in1018.6 mb 0.00 in0.0 mm 0.00 in0.0 mm 0.00 in0.0 mm
11:35 AM 79.0°F26.1°C 67.1°F19.5°C 67% 10.1 mph NW16.3 kmh NW 17.0 mph27.4 kmh 30.08 in1018.6 mb 0.00 in0.0 mm 0.00 in0.0 mm 0.00 in0.0 mm
11:45 AM 79.3°F26.3°C 67.5°F19.7°C 67% 11.0 mph WNW17.7 kmh WNW 19.0 mph30.6 kmh 30.09 in1019.0 mb 0.00 in0.0 mm 0.00 in0.0 mm 0.00 in0.0 mm
11:55 AM 79.7°F26.5°C 67.3°F19.6°C 66% 8.9 mph NW14.3 kmh NW 17.0 mph27.4 kmh 30.08 in1018.6 mb 0.00 in0.0 mm 0.00 in0.0 mm 0.00 in0.0 mm
12:05 PM 79.9°F26.6°C 68.0°F20.0°C 67% 11.0 mph NW17.7 kmh NW 17.9 mph28.8 kmh 30.08 in1018.6 mb 0.00 in0.0 mm 0.00 in0.0 mm 0.00 in0.0 mm
12:15 PM 79.9°F26.6°C 66.6°F19.2°C 64% 10.1 mph NNW16.3 kmh NNW 19.0 mph30.6 kmh 30.09 in1019.0 mb 0.00 in0.0 mm 0.00 in0.0 mm 0.00 in0.0 mm
12:25 PM 79.3°F26.3°C 66.9°F19.4°C 66% 10.1 mph N16.3 kmh N 17.9 mph28.8 kmh 30.09 in1019.0 mb 0.00 in0.0 mm 0.00 in0.0 mm 0.00 in0.0 mm
12:35 PM 79.2°F26.2°C 66.7°F19.3°C 66% 10.1 mph NNW16.3 kmh NNW 19.0 mph30.6 kmh 30.09 in1019.0 mb 0.00 in0.0 mm 0.00 in0.0 mm 0.00 in0.0 mm
12:45 PM 79.5°F26.4°C 67.1°F19.5°C 66% 12.1 mph NW19.5 kmh NW 21.0 mph33.8 kmh 30.09 in1019.0 mb 0.00 in0.0 mm 0.00 in0.0 mm 0.00 in0.0 mm
12:55 PM 79.3°F26.3°C 66.0°F18.9°C 64% 13.0 mph NW20.9 kmh NW 21.9 mph35.2 kmh 30.09 in1019.0 mb 0.00 in0.0 mm 0.00 in0.0 mm 0.00 in0.0 mm
01:05 PM 80.1°F26.7°C 67.3°F19.6°C 65% 11.0 mph N17.7 kmh N 21.0 mph33.8 kmh 30.09 in1019.0 mb 0.00 in0.0 mm 0.00 in0.0 mm 0.00 in0.0 mm
01:15 PM 79.9°F26.6°C 66.2°F19.0°C 63% 10.1 mph NW16.3 kmh NW 19.9 mph32.0 kmh 30.09 in1019.0 mb 0.00 in0.0 mm 0.00 in0.0 mm 0.00 in0.0 mm
01:25 PM 80.8°F27.1°C 66.0°F18.9°C 61% 10.1 mph NNW16.3 kmh NNW 21.9 mph35.2 kmh 30.09 in1019.0 mb 0.00 in0.0 mm 0.00 in0.0 mm 0.00 in0.0 mm
01:35 PM 80.4°F26.9°C 65.7°F18.7°C 61% 12.1 mph NNW19.5 kmh NNW 21.0 mph33.8 kmh 30.09 in1019.0 mb 0.00 in0.0 mm 0.00 in0.0 mm 0.00 in0.0 mm
01:46 PM 80.1°F26.7°C 64.9°F18.3°C 60% 12.1 mph NW19.5 kmh NW 19.9 mph32.0 kmh 30.09 in1019.0 mb 0.00 in0.0 mm 0.00 in0.0 mm 0.00 in0.0 mm
01:56 PM 79.5°F26.4°C 66.2°F19.0°C 64% 13.0 mph NW20.9 kmh NW 21.9 mph35.2 kmh 30.09 in1019.0 mb 0.00 in0.0 mm 0.00 in0.0 mm 0.00 in0.0 mm
02:16 PM 78.4°F25.8°C 66.2°F19.0°C 66% 13.0 mph NNW20.9 kmh NNW 23.0 mph37.0 kmh 30.09 in1019.0 mb 0.00 in0.0 mm 0.00 in0.0 mm 0.00 in0.0 mm
02:36 PM 79.0°F26.1°C 66.6°F19.2°C 66% 10.1 mph NW16.3 kmh NW 19.0 mph30.6 kmh 30.09 in1019.0 mb 0.00 in0.0 mm 0.00 in0.0 mm 0.00 in0.0 mm
02:46 PM 78.6°F25.9°C 66.4°F19.1°C 66% 11.0 mph NNW17.7 kmh NNW 17.9 mph28.8 kmh 30.09 in1019.0 mb 0.00 in0.0 mm 0.00 in0.0 mm 0.00 in0.0 mm
02:56 PM 77.5°F25.3°C 66.2°F19.0°C 68% 12.1 mph NNW19.5 kmh NNW 19.9 mph32.0 kmh 30.09 in1019.0 mb 0.00 in0.0 mm 0.00 in0.0 mm 0.00 in0.0 mm
03:06 PM 77.4°F25.2°C 66.0°F18.9°C 68% 13.0 mph NNW20.9 kmh NNW 21.9 mph35.2 kmh 30.10 in1019.3 mb 0.00 in0.0 mm 0.00 in0.0 mm 0.00 in0.0 mm
03:16 PM 77.2°F25.1°C 66.2°F19.0°C 69% 13.0 mph NNW20.9 kmh NNW 21.9 mph35.2 kmh 30.10 in1019.3 mb 0.00 in0.0 mm 0.00 in0.0 mm 0.00 in0.0 mm
03:26 PM 76.8°F24.9°C 66.2°F19.0°C 70% 13.0 mph NNW20.9 kmh NNW 21.0 mph33.8 kmh 30.10 in1019.3 mb 0.00 in0.0 mm 0.00 in0.0 mm 0.00 in0.0 mm
03:36 PM 77.2°F25.1°C 66.2°F19.0°C 69% 11.0 mph N17.7 kmh N 19.9 mph32.0 kmh 30.10 in1019.3 mb 0.00 in0.0 mm 0.00 in0.0 mm 0.00 in0.0 mm
03:46 PM 77.2°F25.1°C 65.3°F18.5°C 67% 11.0 mph N17.7 kmh N 19.9 mph32.0 kmh 30.10 in1019.3 mb 0.00 in0.0 mm 0.00 in0.0 mm 0.00 in0.0 mm
03:56 PM 77.4°F25.2°C 66.0°F18.9°C 68% 8.9 mph WNW14.3 kmh WNW 19.9 mph32.0 kmh 30.10 in1019.3 mb 0.00 in0.0 mm 0.00 in0.0 mm 0.00 in0.0 mm
04:06 PM 76.8°F24.9°C 64.9°F18.3°C 67% 13.0 mph N20.9 kmh N 19.0 mph30.6 kmh 30.10 in1019.3 mb 0.00 in0.0 mm 0.00 in0.0 mm 0.00 in0.0 mm
04:16 PM 76.3°F24.6°C 64.9°F18.3°C 68% 11.0 mph NNE17.7 kmh NNE 17.9 mph28.8 kmh 30.10 in1019.3 mb 0.00 in0.0 mm 0.00 in0.0 mm 0.00 in0.0 mm
04:26 PM 75.4°F24.1°C 64.6°F18.1°C 69% 11.0 mph 17.7 kmh 21.9 mph35.2 kmh 30.10 in1019.3 mb 0.00 in0.0 mm 0.00 in0.0 mm 0.00 in0.0 mm
04:36 PM 74.7°F23.7°C 64.2°F17.9°C 70% 12.1 mph NW19.5 kmh NW 19.9 mph32.0 kmh 30.10 in1019.3 mb 0.00 in0.0 mm 0.00 in0.0 mm 0.00 in0.0 mm
04:46 PM 74.3°F23.5°C 63.9°F17.7°C 70% 12.1 mph N19.5 kmh N 23.9 mph38.5 kmh 30.10 in1019.3 mb 0.00 in0.0 mm 0.00 in0.0 mm 0.00 in0.0 mm
04:56 PM 74.1°F23.4°C 64.0°F17.8°C 71% 11.0 mph N17.7 kmh N 23.9 mph38.5 kmh 30.10 in1019.3 mb 0.00 in0.0 mm 0.00 in0.0 mm 0.00 in0.0 mm
05:06 PM 73.4°F23.0°C 63.5°F17.5°C 71% 12.1 mph NW19.5 kmh NW 19.9 mph32.0 kmh 30.11 in1019.6 mb 0.00 in0.0 mm 0.00 in0.0 mm 0.00 in0.0 mm
05:16 PM 73.0°F22.8°C 63.5°F17.5°C 72% 8.9 mph NNE14.3 kmh NNE 19.0 mph30.6 kmh 30.11 in1019.6 mb 0.00 in0.0 mm 0.00 in0.0 mm 0.00 in0.0 mm
05:26 PM 72.9°F22.7°C 63.3°F17.4°C 72% 8.1 mph N13.0 kmh N 17.0 mph27.4 kmh 30.11 in1019.6 mb 0.00 in0.0 mm 0.00 in0.0 mm 0.00 in0.0 mm
05:36 PM 72.1°F22.3°C 62.6°F17.0°C 72% 10.1 mph NNW16.3 kmh NNW 19.9 mph32.0 kmh 30.11 in1019.6 mb 0.00 in0.0 mm 0.00 in0.0 mm 0.00 in0.0 mm
05:46 PM 70.9°F21.6°C 62.6°F17.0°C 75% 10.1 mph NW16.3 kmh NW 17.9 mph28.8 kmh 30.11 in1019.6 mb 0.00 in0.0 mm 0.00 in0.0 mm 0.00 in0.0 mm
05:56 PM 70.3°F21.3°C 62.8°F17.1°C 77% 11.0 mph N17.7 kmh N 19.0 mph30.6 kmh 30.12 in1020.0 mb 0.00 in0.0 mm 0.00 in0.0 mm 0.00 in0.0 mm
06:06 PM 70.3°F21.3°C 63.1°F17.3°C 78% 8.9 mph NW14.3 kmh NW 19.0 mph30.6 kmh 30.11 in1019.6 mb 0.00 in0.0 mm 0.00 in0.0 mm 0.00 in0.0 mm
06:16 PM 70.0°F21.1°C 62.8°F17.1°C 78% 10.1 mph NW16.3 kmh NW 16.1 mph25.9 kmh 30.12 in1020.0 mb 0.00 in0.0 mm 0.00 in0.0 mm 0.00 in0.0 mm
06:26 PM 68.7°F20.4°C 62.2°F16.8°C 80% 11.0 mph NW17.7 kmh NW 17.0 mph27.4 kmh 30.12 in1020.0 mb 0.00 in0.0 mm 0.00 in0.0 mm 0.00 in0.0 mm
06:36 PM 68.2°F20.1°C 62.1°F16.7°C 81% 10.1 mph NW16.3 kmh NW 21.0 mph33.8 kmh 30.12 in1020.0 mb 0.00 in0.0 mm 0.00 in0.0 mm 0.00 in0.0 mm
06:46 PM 67.6°F19.8°C 61.9°F16.6°C 82% 8.9 mph NW14.3 kmh NW 16.1 mph25.9 kmh 30.12 in1020.0 mb 0.00 in0.0 mm 0.00 in0.0 mm 0.00 in0.0 mm
06:56 PM 67.3°F19.6°C 61.9°F16.6°C 83% 10.1 mph NW16.3 kmh NW 16.1 mph25.9 kmh 30.12 in1020.0 mb 0.00 in0.0 mm 0.00 in0.0 mm 0.00 in0.0 mm
07:06 PM 66.7°F19.3°C 61.3°F16.3°C 83% 10.1 mph N16.3 kmh N 17.9 mph28.8 kmh 30.12 in1020.0 mb 0.00 in0.0 mm 0.00 in0.0 mm 0.00 in0.0 mm
07:16 PM 66.6°F19.2°C 61.2°F16.2°C 83% 8.1 mph 13.0 kmh 17.0 mph27.4 kmh 30.12 in1020.0 mb 0.00 in0.0 mm 0.00 in0.0 mm 0.00 in0.0 mm
07:26 PM 66.4°F19.1°C 61.0°F16.1°C 83% 6.9 mph NW11.1 kmh NW 14.1 mph22.7 kmh 30.13 in1020.3 mb 0.00 in0.0 mm 0.00 in0.0 mm 0.00 in0.0 mm
07:36 PM 66.0°F18.9°C 60.6°F15.9°C 83% 8.1 mph NW13.0 kmh NW 17.0 mph27.4 kmh 30.13 in1020.3 mb 0.00 in0.0 mm 0.00 in0.0 mm 0.00 in0.0 mm
07:46 PM 65.7°F18.7°C 60.6°F15.9°C 84% 6.9 mph WNW11.1 kmh WNW 13.0 mph20.9 kmh 30.13 in1020.3 mb 0.00 in0.0 mm 0.00 in0.0 mm 0.00 in0.0 mm
07:56 PM 65.1°F18.4°C 60.4°F15.8°C 85% 8.9 mph WNW14.3 kmh WNW 16.1 mph25.9 kmh 30.14 in1020.7 mb 0.00 in0.0 mm 0.00 in0.0 mm 0.00 in0.0 mm
08:06 PM 64.9°F18.3°C 60.3°F15.7°C 85% 8.9 mph NW14.3 kmh NW 15.0 mph24.1 kmh 30.14 in1020.7 mb 0.00 in0.0 mm 0.00 in0.0 mm 0.00 in0.0 mm
08:16 PM 64.6°F18.1°C 60.3°F15.7°C 86% 8.1 mph NW13.0 kmh NW 14.1 mph22.7 kmh 30.14 in1020.7 mb 0.00 in0.0 mm 0.00 in0.0 mm 0.00 in0.0 mm
08:26 PM 64.2°F17.9°C 60.3°F15.7°C 87% 8.1 mph N13.0 kmh N 13.0 mph20.9 kmh 30.14 in1020.7 mb 0.00 in0.0 mm 0.00 in0.0 mm 0.00 in0.0 mm
08:36 PM 64.0°F17.8°C 60.4°F15.8°C 88% 8.1 mph NW13.0 kmh NW 14.1 mph22.7 kmh 30.15 in1021.0 mb 0.00 in0.0 mm 0.00 in0.0 mm 0.00 in0.0 mm
08:46 PM 63.9°F17.7°C 60.3°F15.7°C 88% 8.1 mph NW13.0 kmh NW 15.0 mph24.1 kmh 30.15 in1021.0 mb 0.00 in0.0 mm 0.00 in0.0 mm 0.00 in0.0 mm
08:56 PM 63.7°F17.6°C 60.1°F15.6°C 88% 6.0 mph NW9.7 kmh NW 12.1 mph19.5 kmh 30.16 in1021.3 mb 0.00 in0.0 mm 0.00 in0.0 mm 0.00 in0.0 mm
09:06 PM 63.5°F17.5°C 60.3°F15.7°C 89% 6.0 mph NNW9.7 kmh NNW 12.1 mph19.5 kmh 30.16 in1021.3 mb 0.00 in0.0 mm 0.00 in0.0 mm 0.00 in0.0 mm
09:16 PM 63.3°F17.4°C 60.1°F15.6°C 89% 4.9 mph NNW7.9 kmh NNW 11.0 mph17.7 kmh 30.16 in1021.3 mb 0.00 in0.0 mm 0.00 in0.0 mm 0.00 in0.0 mm
09:26 PM 63.1°F17.3°C 59.9°F15.5°C 89% 4.9 mph NW7.9 kmh NW 10.1 mph16.3 kmh 30.16 in1021.3 mb 0.00 in0.0 mm 0.00 in0.0 mm 0.00 in0.0 mm
09:36 PM 63.0°F17.2°C 59.9°F15.5°C 90% 4.9 mph NNW7.9 kmh NNW 8.9 mph14.3 kmh 30.16 in1021.3 mb 0.00 in0.0 mm 0.00 in0.0 mm 0.00 in0.0 mm
09:46 PM 62.8°F17.1°C 59.7°F15.4°C 90% 4.9 mph NNW7.9 kmh NNW 10.1 mph16.3 kmh 30.16 in1021.3 mb 0.00 in0.0 mm 0.00 in0.0 mm 0.00 in0.0 mm
09:56 PM 62.8°F17.1°C 59.7°F15.4°C 90% 4.0 mph NW6.4 kmh NW 8.9 mph14.3 kmh 30.16 in1021.3 mb 0.00 in0.0 mm 0.00 in0.0 mm 0.00 in0.0 mm
10:06 PM 62.8°F17.1°C 59.7°F15.4°C 90% 4.9 mph NW7.9 kmh NW 10.1 mph16.3 kmh 30.16 in1021.3 mb 0.00 in0.0 mm 0.00 in0.0 mm 0.00 in0.0 mm
10:16 PM 62.4°F16.9°C 59.7°F15.4°C 91% 4.9 mph NW7.9 kmh NW 10.1 mph16.3 kmh 30.16 in1021.3 mb 0.00 in0.0 mm 0.00 in0.0 mm 0.00 in0.0 mm
10:26 PM 62.2°F16.8°C 59.5°F15.3°C 91% 4.0 mph NW6.4 kmh NW 8.9 mph14.3 kmh 30.16 in1021.3 mb 0.00 in0.0 mm 0.00 in0.0 mm 0.00 in0.0 mm
10:36 PM 62.2°F16.8°C 59.5°F15.3°C 91% 4.0 mph NNW6.4 kmh NNW 8.9 mph14.3 kmh 30.16 in1021.3 mb 0.00 in0.0 mm 0.00 in0.0 mm 0.00 in0.0 mm
10:47 PM 62.2°F16.8°C 59.5°F15.3°C 91% 4.0 mph NW6.4 kmh NW 8.1 mph13.0 kmh 30.16 in1021.3 mb 0.00 in0.0 mm 0.00 in0.0 mm 0.00 in0.0 mm
10:57 PM 62.2°F16.8°C 59.5°F15.3°C 91% 2.9 mph NW4.7 kmh NW 6.9 mph11.1 kmh 30.16 in1021.3 mb 0.00 in0.0 mm 0.00 in0.0 mm 0.00 in0.0 mm
11:07 PM 62.4°F16.9°C 59.7°F15.4°C 91% 2.0 mph NW3.2 kmh NW 4.9 mph7.9 kmh 30.16 in1021.3 mb 0.00 in0.0 mm 0.00 in0.0 mm 0.00 in0.0 mm
11:17 PM 62.6°F17.0°C 59.9°F15.5°C 91% 2.9 mph NW4.7 kmh NW 6.9 mph11.1 kmh 30.16 in1021.3 mb 0.00 in0.0 mm 0.00 in0.0 mm 0.00 in0.0 mm
11:27 PM 62.8°F17.1°C 60.4°F15.8°C 92% 2.0 mph NW3.2 kmh NW 4.9 mph7.9 kmh 30.16 in1021.3 mb 0.00 in0.0 mm 0.00 in0.0 mm 0.00 in0.0 mm
11:37 PM 63.0°F17.2°C 60.6°F15.9°C 92% 2.9 mph NNW4.7 kmh NNW 6.0 mph9.7 kmh 30.16 in1021.3 mb 0.00 in0.0 mm 0.00 in0.0 mm 0.00 in0.0 mm
11:47 PM 63.1°F17.3°C 60.8°F16.0°C 92% 2.9 mph NNW4.7 kmh NNW 6.0 mph9.7 kmh 30.16 in1021.3 mb 0.00 in0.0 mm 0.00 in0.0 mm 0.00 in0.0 mm
11:57 PM 63.1°F17.3°C 60.8°F16.0°C 92% 2.9 mph NNW4.7 kmh NNW 6.0 mph9.7 kmh 30.16 in1021.3 mb 0.00 in0.0 mm 0.00 in0.0 mm 0.00 in0.0 mm